Time;durP1;ratioP1;P1;durP2;ratioP2;P2;SDS_P1;SDS_P2;PMS_P1;PMS_P2;Temp;Humidity;BMP_temperature;BMP_pressure;BME280_temperature;BME280_humidity;BME280_pressure;Samples;Min_cycle;Max_cycle;Signal;HPM_P1;HPM_P2
2021/12/21 00:00:32;;;;;;;1.57;1.40;;;;;;;9.21;51.47;98959.59;1787189;80;21022;-58
2021/12/21 00:02:59;;;;;;;2.15;1.50;;;;;;;9.20;51.50;98963.23;1784775;79;21021;-58
2021/12/21 00:05:27;;;;;;;1.42;1.32;;;;;;;9.19;51.47;98962.92;1827241;78;21072;-60
2021/12/21 00:07:58;;;;;;;1.52;1.35;;;;;;;9.17;51.48;98963.57;1802617;78;21045;-58
2021/12/21 00:10:29;;;;;;;1.80;1.45;;;;;;;9.17;51.46;98965.41;1813258;78;21584;-58
2021/12/21 00:15:35;;;;;;;2.27;1.90;;;;;;;9.16;51.41;98975.19;1784968;80;21447;-59
2021/12/21 00:18:03;;;;;;;2.20;1.62;;;;;;;9.16;51.40;98978.34;1788432;80;21092;-57
2021/12/21 00:20:32;;;;;;;2.20;1.60;;;;;;;9.15;51.38;98984.64;1780220;80;21020;-58
2021/12/21 00:23:18;;;;;;;1.85;1.20;;;;;;;9.15;51.38;98988.61;1768666;79;21121;-58
2021/12/21 00:25:23;;;;;;;2.67;2.08;;;;;;;9.15;51.35;98992.59;1823052;78;21076;-57
2021/12/21 00:27:51;;;;;;;2.37;1.70;;;;;;;9.13;51.35;98999.38;1825051;78;21049;-57
2021/12/21 00:30:19;;;;;;;2.33;1.40;;;;;;;9.15;51.32;99005.33;1802238;78;21058;-58
2021/12/21 00:32:45;;;;;;;1.35;1.25;;;;;;;9.15;51.27;99004.51;1790178;78;21053;-57
2021/12/21 00:35:12;;;;;;;1.75;1.47;;;;;;;9.16;51.24;99003.52;1805075;78;21062;-58
2021/12/21 00:37:41;;;;;;;1.42;1.30;;;;;;;9.16;51.21;99005.66;1805960;78;21046;-58
2021/12/21 00:40:09;;;;;;;1.82;1.32;;;;;;;9.16;51.18;99005.66;1799831;78;21041;-58
2021/12/21 00:42:35;;;;;;;1.80;1.37;;;;;;;9.15;51.17;99007.98;1767492;78;21115;-58
2021/12/21 00:45:03;;;;;;;1.60;1.45;;;;;;;9.15;51.13;99009.30;1810709;78;21041;-58
2021/12/21 00:47:33;;;;;;;2.45;1.70;;;;;;;9.14;51.08;99014.30;1798451;79;21079;-57
2021/12/21 00:50:01;;;;;;;1.75;1.42;;;;;;;9.14;51.09;99011.64;1801368;79;21135;-58
2021/12/21 00:52:27;;;;;;;2.00;1.50;;;;;;;9.14;51.08;99011.64;1787564;79;21049;-57
2021/12/21 00:54:53;;;;;;;1.75;1.42;;;;;;;9.13;51.07;99014.46;1797984;78;21152;-57
2021/12/21 00:57:20;;;;;;;1.57;1.27;;;;;;;9.12;51.04;99008.34;1802627;78;21013;-57
2021/12/21 00:59:46;;;;;;;2.55;1.30;;;;;;;9.12;51.04;99018.95;1760032;80;21125;-58
2021/12/21 01:02:13;;;;;;;1.42;1.07;;;;;;;9.10;51.02;99023.59;1809322;78;21518;-58
2021/12/21 01:04:45;;;;;;;1.35;1.20;;;;;;;9.11;51.01;99026.56;1794274;78;21021;-57
2021/12/21 01:10:21;;;;;;;1.33;1.23;;;;;;;9.09;50.97;99031.21;1811024;78;21030;-59
2021/12/21 01:17:48;;;;;;;1.72;1.50;;;;;;;9.06;50.91;99040.85;1816236;78;20990;-59
2021/12/21 01:20:25;;;;;;;1.70;1.32;;;;;;;9.05;50.88;99044.48;1780690;80;21156;-58
2021/12/21 01:28:32;;;;;;;1.57;1.37;;;;;;;9.01;50.85;99053.28;1749409;81;21083;-58
2021/12/21 01:31:01;;;;;;;2.42;1.70;;;;;;;9.00;50.85;99049.00;1837068;77;21052;-57
2021/12/21 01:35:54;;;;;;;1.85;1.65;;;;;;;8.98;50.82;99056.30;1776975;78;21481;-58
2021/12/21 01:38:41;;;;;;;1.72;1.40;;;;;;;8.96;50.84;99060.95;1788431;80;21033;-57
2021/12/21 01:41:08;;;;;;;2.08;1.60;;;;;;;8.95;50.82;99059.28;1806279;78;21528;-57
2021/12/21 01:43:38;;;;;;;2.37;1.70;;;;;;;8.95;50.82;99058.47;1796880;78;21667;-57
2021/12/21 01:51:30;;;;;;;1.67;1.25;;;;;;;8.92;50.78;99067.56;1784349;80;21671;-56
2021/12/21 01:53:56;;;;;;;2.50;1.65;;;;;;;8.92;50.78;99073.38;1781735;80;21088;-57
2021/12/21 01:56:23;;;;;;;1.60;1.37;;;;;;;8.91;50.76;99079.69;1791656;78;21092;-57
2021/12/21 01:58:50;;;;;;;2.42;1.30;;;;;;;8.91;50.76;99074.39;1815007;78;22403;-57
2021/12/21 02:01:18;;;;;;;1.77;1.52;;;;;;;8.90;50.72;99083.31;1806797;78;21072;-57
2021/12/21 02:03:47;;;;;;;2.08;1.55;;;;;;;8.89;50.70;99079.03;1811151;78;21043;-57
2021/12/21 02:06:17;;;;;;;2.02;1.42;;;;;;;8.89;50.68;99086.47;1826486;78;20996;-60
2021/12/21 02:08:44;;;;;;;1.82;1.62;;;;;;;8.88;50.67;99083.48;1807951;78;21085;-57
2021/12/21 02:11:13;;;;;;;1.95;1.62;;;;;;;8.85;50.67;99083.84;1805983;78;21021;-57
2021/12/21 02:13:43;;;;;;;1.65;1.32;;;;;;;8.87;50.63;99092.45;1773029;80;21061;-57
2021/12/21 02:16:07;;;;;;;1.80;1.47;;;;;;;8.87;50.60;99095.09;1766653;80;21052;-58
2021/12/21 02:21:29;;;;;;;2.12;1.55;;;;;;;8.86;50.58;99106.67;1804317;78;21359;-57
2021/12/21 02:23:41;;;;;;;2.08;1.57;;;;;;;8.84;50.58;99100.22;1799467;78;21069;-57
2021/12/21 02:26:36;;;;;;;1.67;1.52;;;;;;;8.83;50.55;99103.06;1815952;78;21100;-57
2021/12/21 02:29:10;;;;;;;1.70;1.60;;;;;;;8.82;50.57;99114.64;1812215;78;21568;-58
2021/12/21 02:31:17;;;;;;;1.95;1.30;;;;;;;8.79;50.55;99114.50;1773111;80;21022;-57
2021/12/21 02:33:47;;;;;;;2.37;1.52;;;;;;;8.77;50.56;99109.87;1808435;79;21458;-58
2021/12/21 02:36:12;;;;;;;1.60;1.25;;;;;;;8.77;50.57;99122.27;1799966;79;22146;-57
2021/12/21 02:38:38;;;;;;;1.50;1.27;;;;;;;8.75;50.56;99123.78;1801171;79;21022;-57
2021/12/21 02:41:04;;;;;;;2.25;1.80;;;;;;;8.74;50.55;99126.09;1784765;79;21084;-57
2021/12/21 02:43:33;;;;;;;2.35;1.80;;;;;;;8.72;50.57;99122.79;1774064;80;21075;-58
2021/12/21 02:46:00;;;;;;;2.52;1.37;;;;;;;8.73;50.53;99138.17;1793855;78;21017;-58
2021/12/21 02:48:26;;;;;;;2.22;1.52;;;;;;;8.74;50.52;99133.22;1782220;79;21128;-57
2021/12/21 02:50:53;;;;;;;1.40;1.30;;;;;;;8.74;50.47;99135.87;1785916;80;21045;-57
2021/12/21 02:53:20;;;;;;;1.80;1.50;;;;;;;8.73;50.46;99131.55;1779889;80;22039;-57
2021/12/21 02:55:46;;;;;;;1.50;1.32;;;;;;;8.72;50.46;99132.56;1785775;79;21573;-57
2021/12/21 02:58:12;;;;;;;1.85;1.45;;;;;;;8.71;50.41;99131.75;1779695;80;21034;-58
2021/12/21 03:00:39;;;;;;;1.92;1.50;;;;;;;8.70;50.44;99138.53;1779503;80;21085;-58
2021/12/21 03:03:13;;;;;;;2.50;1.40;;;;;;;8.70;50.42;99143.33;1779644;80;21050;-56
2021/12/21 03:05:37;;;;;;;2.12;1.55;;;;;;;8.70;50.39;99147.30;1782659;79;21062;-57
2021/12/21 03:08:11;;;;;;;2.83;1.98;;;;;;;8.70;50.36;99149.94;1779304;80;21049;-58
2021/12/21 03:10:34;;;;;;;2.72;1.65;;;;;;;8.67;50.36;99144.98;1779475;80;20993;-57
2021/12/21 03:15:46;;;;;;;2.45;1.37;;;;;;;8.65;50.35;99155.77;1784771;78;20998;-59
2021/12/21 03:18:13;;;;;;;2.10;1.60;;;;;;;8.64;50.32;99162.04;1772752;80;21058;-59
2021/12/21 03:20:40;;;;;;;1.55;1.40;;;;;;;8.63;50.34;99152.94;1780213;79;21033;-59
2021/12/21 03:23:06;;;;;;;2.12;1.55;;;;;;;8.62;50.33;99158.73;1793423;79;21504;-57
2021/12/21 03:25:35;;;;;;;2.02;1.50;;;;;;;8.62;50.31;99160.06;1751859;80;21041;-57
2021/12/21 03:28:01;;;;;;;2.27;1.67;;;;;;;8.61;50.32;99166.84;1764020;80;21017;-57
2021/12/21 03:30:28;;;;;;;2.30;1.40;;;;;;;8.60;50.30;99169.18;1790899;78;21509;-56
2021/12/21 03:32:55;;;;;;;2.22;1.62;;;;;;;8.59;50.30;99170.16;1821477;78;21581;-56
2021/12/21 03:35:21;;;;;;;1.82;1.52;;;;;;;8.59;50.29;99170.16;1798781;78;21163;-57
2021/12/21 03:37:48;;;;;;;2.08;1.80;;;;;;;8.59;50.27;99173.62;1766108;80;21103;-57
2021/12/21 03:40:15;;;;;;;2.10;1.70;;;;;;;8.59;50.25;99172.80;1798123;79;21045;-56
2021/12/21 03:42:42;;;;;;;2.52;1.62;;;;;;;8.59;50.22;99174.13;1787865;79;21029;-56
2021/12/21 03:45:10;;;;;;;1.77;1.40;;;;;;;8.58;50.21;99172.50;1770958;79;21109;-56
2021/12/21 03:47:39;;;;;;;1.87;1.60;;;;;;;8.57;50.20;99174.80;1799440;79;21053;-58
2021/12/21 03:50:15;;;;;;;2.10;1.60;;;;;;;8.57;50.20;99172.16;1796139;79;21144;-58
2021/12/21 03:52:36;;;;;;;2.85;1.87;;;;;;;8.56;50.19;99171.34;1798620;79;21549;-57
2021/12/21 03:55:06;;;;;;;2.62;1.77;;;;;;;8.55;50.20;99168.85;1796339;79;21026;-57
2021/12/21 03:57:34;;;;;;;2.47;2.00;;;;;;;8.56;50.17;99174.48;1802841;79;21680;-57
2021/12/21 04:00:01;;;;;;;2.80;1.90;;;;;;;8.56;50.14;99174.48;1782908;79;21055;-57
2021/12/21 04:02:28;;;;;;;2.17;1.77;;;;;;;8.55;50.12;99173.64;1789263;79;21770;-57
2021/12/21 04:04:57;;;;;;;2.87;1.60;;;;;;;8.56;50.08;99173.16;1790124;79;21042;-57
2021/12/21 04:07:23;;;;;;;2.25;1.40;;;;;;;8.55;50.09;99176.80;1794553;79;21010;-58
2021/12/21 04:09:49;;;;;;;2.40;1.80;;;;;;;8.55;50.06;99176.80;1789321;80;21033;-57
2021/12/21 04:12:16;;;;;;;2.75;1.70;;;;;;;8.53;50.07;99182.25;1800292;78;21064;-58
2021/12/21 04:14:43;;;;;;;2.22;1.75;;;;;;;8.52;50.05;99181.94;1796454;78;21157;-57
2021/12/21 04:17:16;;;;;;;2.15;1.95;;;;;;;8.52;50.05;99182.41;1770957;80;21602;-57
2021/12/21 04:19:38;;;;;;;2.00;1.55;;;;;;;8.53;50.03;99181.43;1786327;80;21045;-58
2021/12/21 04:22:04;;;;;;;1.95;1.57;;;;;;;8.53;50.02;99190.70;1782901;80;21022;-58
2021/12/21 04:24:31;;;;;;;2.25;1.65;;;;;;;8.53;50.00;99198.64;1788399;80;21043;-56
2021/12/21 04:26:57;;;;;;;2.40;1.55;;;;;;;8.53;49.97;99195.99;1797999;78;23300;-57
2021/12/21 04:29:23;;;;;;;2.22;1.60;;;;;;;8.52;49.96;99193.00;1773926;79;21054;-57
2021/12/21 04:31:50;;;;;;;2.17;1.82;;;;;;;8.53;49.95;99202.61;1779237;79;21080;-56
2021/12/21 04:34:16;;;;;;;1.77;1.57;;;;;;;8.52;49.93;99211.06;1780564;79;21077;-58
2021/12/21 04:36:44;;;;;;;2.00;1.60;;;;;;;8.52;49.90;99215.50;1792569;79;21505;-57
2021/12/21 04:39:29;;;;;;;1.95;1.50;;;;;;;8.51;49.88;99223.13;1789542;79;21078;-56
2021/12/21 04:41:44;;;;;;;1.92;1.70;;;;;;;8.51;49.89;99221.30;1772708;79;21017;-56
2021/12/21 04:44:11;;;;;;;2.83;1.60;;;;;;;8.50;49.87;99220.14;1784350;79;21075;-58
2021/12/21 04:46:37;;;;;;;2.62;1.85;;;;;;;8.50;49.85;99230.73;1792082;79;21006;-57
2021/12/21 04:49:04;;;;;;;2.70;2.02;;;;;;;8.50;49.85;99229.41;1796870;79;21319;-58
2021/12/21 04:51:30;;;;;;;2.20;1.70;;;;;;;8.50;49.83;99234.70;1794904;79;21143;-57
2021/12/21 04:53:57;;;;;;;2.02;1.60;;;;;;;8.50;49.79;99236.03;1780583;79;21030;-57
2021/12/21 04:56:24;;;;;;;2.15;1.95;;;;;;;8.50;49.78;99242.17;1796714;79;21675;-57
2021/12/21 04:58:50;;;;;;;2.77;1.82;;;;;;;8.48;49.78;99238.86;1793564;79;21029;-57
2021/12/21 05:01:16;;;;;;;2.15;1.90;;;;;;;8.48;49.75;99244.16;1790003;79;21074;-56
2021/12/21 05:03:43;;;;;;;2.00;1.50;;;;;;;8.47;49.74;99239.84;1791842;79;21189;-57
2021/12/21 05:06:10;;;;;;;2.00;1.80;;;;;;;8.46;49.74;99249.61;1783636;79;21244;-59
2021/12/21 05:08:39;;;;;;;2.67;1.60;;;;;;;8.46;49.70;99248.80;1795396;79;21041;-58
2021/12/21 05:11:06;;;;;;;2.20;1.75;;;;;;;8.47;49.68;99259.70;1785363;79;21038;-57
2021/12/21 05:13:36;;;;;;;2.00;1.37;;;;;;;8.48;49.65;99256.55;1790427;79;21088;-58
2021/12/21 05:16:03;;;;;;;2.50;1.77;;;;;;;8.46;49.62;99262.84;1783764;79;21115;-59
2021/12/21 05:18:32;;;;;;;1.65;1.40;;;;;;;8.46;49.59;99262.84;1770318;79;21057;-57
2021/12/21 05:20:59;;;;;;;2.15;1.30;;;;;;;8.43;49.59;99265.81;1786693;79;21018;-58
2021/12/21 05:23:25;;;;;;;2.00;1.40;;;;;;;8.44;49.57;99258.22;1815977;78;21513;-58
2021/12/21 05:25:53;;;;;;;3.10;1.72;;;;;;;8.43;49.57;99269.78;1780112;80;21056;-56
2021/12/21 05:28:20;;;;;;;1.98;1.40;;;;;;;8.42;49.54;99265.50;1796772;79;21962;-56
2021/12/21 05:30:46;;;;;;;2.05;1.47;;;;;;;8.41;49.51;99267.80;1798371;79;21073;-57
2021/12/21 05:33:14;;;;;;;2.50;1.72;;;;;;;8.41;49.50;99276.22;1757755;80;21036;-57
2021/12/21 05:35:41;;;;;;;1.92;1.60;;;;;;;8.40;49.52;99280.69;1770183;79;21056;-57
2021/12/21 05:38:09;;;;;;;2.17;1.60;;;;;;;8.40;49.49;99283.81;1783422;79;21088;-58
2021/12/21 05:40:40;;;;;;;2.02;1.40;;;;;;;8.39;49.49;99286.14;1777239;79;21150;-57
2021/12/21 05:43:07;;;;;;;2.15;1.70;;;;;;;8.37;49.47;99288.95;1783236;80;21131;-58
2021/12/21 05:45:33;;;;;;;2.20;1.62;;;;;;;8.36;49.46;99292.58;1788466;80;21040;-58
2021/12/21 05:48:00;;;;;;;1.95;1.40;;;;;;;8.34;49.46;99289.77;1808818;78;20982;-59
2021/12/21 05:50:26;;;;;;;2.10;1.57;;;;;;;8.33;49.44;99287.63;1810761;78;21084;-58
2021/12/21 05:52:53;;;;;;;1.95;1.72;;;;;;;8.33;49.42;99279.69;1794483;79;21972;-57
2021/12/21 05:55:20;;;;;;;1.80;1.60;;;;;;;8.32;49.41;99270.59;1791567;80;21002;-57
2021/12/21 05:57:46;;;;;;;1.95;1.45;;;;;;;8.31;49.41;99286.15;1778497;80;21529;-56
2021/12/21 06:00:18;;;;;;;2.22;1.20;;;;;;;8.30;49.39;99296.39;1778705;79;21095;-57
2021/12/21 06:02:45;;;;;;;1.52;1.40;;;;;;;8.29;49.38;99296.89;1778186;79;21096;-57
2021/12/21 06:05:12;;;;;;;2.02;1.47;;;;;;;8.27;49.38;99298.38;1781211;80;21147;-57
2021/12/21 06:07:40;;;;;;;2.10;1.60;;;;;;;8.27;49.39;99316.08;1776752;79;21103;-58
2021/12/21 06:10:15;;;;;;;2.17;1.90;;;;;;;8.25;49.38;99319.39;1775261;79;21100;-59
2021/12/21 06:15:19;;;;;;;2.30;1.60;;;;;;;8.24;49.37;99331.77;1766573;80;21052;-58
2021/12/21 06:28:22;;;;;;;1.72;1.55;;;;;;;8.20;49.27;99350.29;1740187;80;21109;-56
2021/12/21 06:30:50;;;;;;;2.08;1.87;;;;;;;8.19;49.23;99355.27;1768569;78;21196;-57
2021/12/21 06:33:17;;;;;;;2.65;1.40;;;;;;;8.19;49.24;99362.35;1776826;79;21113;-57
2021/12/21 06:35:43;;;;;;;2.08;1.50;;;;;;;8.18;49.20;99364.17;1797249;79;21011;-59
2021/12/21 06:38:10;;;;;;;1.85;1.30;;;;;;;8.18;49.20;99368.65;1794738;79;21002;-59
2021/12/21 06:40:37;;;;;;;1.72;1.40;;;;;;;8.17;49.16;99379.73;1771627;79;20990;-59
2021/12/21 06:43:04;;;;;;;1.75;1.52;;;;;;;8.18;49.14;99376.59;1779302;79;21081;-59
2021/12/21 06:51:48;;;;;;;1.65;1.40;;;;;;;8.21;48.99;99398.77;1752565;80;21958;-60
2021/12/21 06:54:09;;;;;;;1.90;1.60;;;;;;;8.16;49.03;99395.27;1744040;81;20990;-60
2021/12/21 06:56:36;;;;;;;2.00;1.50;;;;;;;8.13;49.02;99402.22;1728557;81;20989;-60
2021/12/21 06:59:02;;;;;;;1.60;1.47;;;;;;;8.14;49.04;99403.05;1730021;81;21064;-59
2021/12/21 07:01:29;;;;;;;1.70;1.30;;;;;;;8.13;49.01;99409.31;1731463;80;21061;-59
2021/12/21 07:03:57;;;;;;;2.22;1.55;;;;;;;8.14;49.00;99416.27;1753928;80;21115;-59
2021/12/21 07:06:23;;;;;;;2.08;1.60;;;;;;;8.14;48.96;99416.27;1754939;81;20993;-59
2021/12/21 07:09:07;;;;;;;2.37;1.52;;;;;;;8.14;48.94;99417.59;1735647;81;20985;-59
2021/12/21 07:11:57;;;;;;;1.80;1.27;;;;;;;8.15;48.92;99425.84;1726497;81;21053;-57
2021/12/21 07:19:51;;;;;;;2.72;1.80;;;;;;;8.13;48.83;99441.05;1731135;80;21096;-59
2021/12/21 07:22:17;;;;;;;2.30;1.60;;;;;;;8.13;48.82;99442.38;1727319;81;21006;-60
2021/12/21 07:24:44;;;;;;;2.17;1.50;;;;;;;8.12;48.80;99440.73;1731164;80;21049;-59
2021/12/21 07:27:11;;;;;;;3.02;1.35;;;;;;;8.13;48.78;99443.23;1727023;81;21089;-60
2021/12/21 07:29:37;;;;;;;3.15;1.37;;;;;;;8.13;48.74;99441.91;1745396;81;23264;-59
2021/12/21 07:32:05;;;;;;;1.72;1.35;;;;;;;8.14;48.72;99436.94;1727428;81;21064;-58
2021/12/21 07:34:32;;;;;;;1.72;1.27;;;;;;;8.14;48.69;99435.61;1737748;81;21098;-59
2021/12/21 07:36:58;;;;;;;2.42;2.05;;;;;;;8.15;48.64;99446.55;1752614;80;21202;-58
2021/12/21 07:39:24;;;;;;;2.70;1.70;;;;;;;8.16;48.61;99453.48;1756356;81;21522;-59
2021/12/21 07:41:51;;;;;;;2.30;1.40;;;;;;;8.16;48.57;99457.45;1722276;81;21057;-57
2021/12/21 07:44:17;;;;;;;2.58;1.72;;;;;;;8.17;48.57;99470.17;1693264;83;21129;-57
2021/12/21 07:46:44;;;;;;;1.90;1.62;;;;;;;8.17;48.55;99463.56;1737415;80;22083;-58
2021/12/21 07:49:12;;;;;;;3.17;1.52;;;;;;;8.18;48.54;99467.87;1723265;80;21018;-58
2021/12/21 07:51:40;;;;;;;2.02;1.42;;;;;;;8.18;48.47;99471.34;1730657;80;21026;-59
2021/12/21 07:54:07;;;;;;;2.47;1.65;;;;;;;8.18;48.48;99475.31;1715194;82;21156;-58
2021/12/21 07:56:33;;;;;;;1.72;1.62;;;;;;;8.19;48.44;99478.31;1726040;80;21007;-61
2021/12/21 07:59:00;;;;;;;2.30;1.87;;;;;;;8.20;48.44;99478.62;1737347;80;21550;-59
2021/12/21 08:01:28;;;;;;;2.50;1.70;;;;;;;8.20;48.38;99489.21;1723260;82;21019;-60
2021/12/21 08:03:56;;;;;;;2.20;1.65;;;;;;;8.22;48.36;99486.41;1713888;82;21050;-58
2021/12/21 08:06:22;;;;;;;1.60;1.40;;;;;;;8.22;48.33;99493.85;1714747;80;21121;-59
2021/12/21 08:08:50;;;;;;;3.58;1.65;;;;;;;8.23;48.32;99490.73;1727382;80;21078;-60
2021/12/21 08:14:00;;;;;;;1.95;1.60;;;;;;;8.25;48.23;99489.58;1719496;82;21046;-59
2021/12/21 08:16:27;;;;;;;1.70;1.32;;;;;;;8.27;48.19;99491.56;1731713;80;21050;-60
2021/12/21 08:18:53;;;;;;;1.50;1.30;;;;;;;8.27;48.17;99491.56;1717511;82;21124;-59
2021/12/21 08:21:24;;;;;;;2.17;1.70;;;;;;;8.28;48.14;99494.53;1713959;82;21030;-58
2021/12/21 08:23:50;;;;;;;2.15;1.40;;;;;;;8.28;48.10;99498.50;1717261;82;21026;-61
2021/12/21 08:26:17;;;;;;;1.90;1.50;;;;;;;8.27;48.10;99498.19;1736840;80;21463;-59
2021/12/21 08:28:43;;;;;;;1.62;1.50;;;;;;;8.28;48.08;99504.30;1713884;82;21003;-61
2021/12/21 08:31:12;;;;;;;2.12;1.47;;;;;;;8.28;48.04;99505.12;1714876;82;21276;-60
2021/12/21 08:33:42;;;;;;;1.95;1.32;;;;;;;8.29;48.01;99508.62;1714969;80;21066;-60
2021/12/21 08:36:10;;;;;;;2.12;1.70;;;;;;;8.30;47.98;99510.27;1737548;80;21589;-60
2021/12/21 08:38:39;;;;;;;1.82;1.55;;;;;;;8.30;47.95;99513.41;1717835;80;21078;-59
2021/12/21 08:41:05;;;;;;;2.08;1.52;;;;;;;8.31;47.93;99517.23;1716547;80;21027;-61
2021/12/21 08:43:33;;;;;;;2.08;1.60;;;;;;;8.31;47.92;99521.20;1727403;80;21505;-59
2021/12/21 08:45:59;;;;;;;2.10;1.55;;;;;;;8.32;47.89;99518.05;1721414;81;21002;-60
2021/12/21 08:48:27;;;;;;;1.62;1.45;;;;;;;8.32;47.85;99529.45;1737721;81;21019;-58
2021/12/21 08:50:55;;;;;;;1.70;1.42;;;;;;;8.33;47.81;99526.34;1745003;80;21474;-59
2021/12/21 08:53:23;;;;;;;1.90;1.37;;;;;;;8.34;47.77;99534.09;1737099;81;21061;-60
2021/12/21 08:55:51;;;;;;;1.82;1.55;;;;;;;8.35;47.75;99534.45;1726734;81;21136;-60
2021/12/21 08:58:18;;;;;;;1.75;1.47;;;;;;;8.34;47.74;99538.06;1726536;81;21046;-60
2021/12/21 09:00:45;;;;;;;2.05;1.57;;;;;;;8.36;47.73;99542.70;1730247;80;21026;-60
2021/12/21 09:03:12;;;;;;;1.67;1.40;;;;;;;8.36;47.68;99545.35;1728661;81;21351;-60
2021/12/21 09:05:40;;;;;;;1.95;1.75;;;;;;;8.40;47.63;99555.13;1735531;81;21045;-59
2021/12/21 09:08:08;;;;;;;2.40;1.72;;;;;;;8.39;47.59;99545.05;1743171;81;21101;-60
2021/12/21 09:10:35;;;;;;;2.52;1.72;;;;;;;8.40;47.57;99538.78;1730005;81;21081;-58
2021/12/21 09:13:02;;;;;;;1.65;1.55;;;;;;;8.41;47.57;99545.75;1726777;80;22023;-61
2021/12/21 09:15:29;;;;;;;1.80;1.42;;;;;;;8.43;47.54;99553.53;1747587;81;21053;-61
2021/12/21 09:17:56;;;;;;;1.75;1.35;;;;;;;8.44;47.51;99550.73;1732104;81;21573;-61
2021/12/21 09:20:26;;;;;;;2.42;1.87;;;;;;;8.44;47.46;99546.77;1726878;81;21137;-60
2021/12/21 09:22:52;;;;;;;2.85;1.52;;;;;;;8.44;47.43;99549.41;1737659;80;21135;-62
2021/12/21 09:25:19;;;;;;;2.65;1.67;;;;;;;8.47;47.38;99552.23;1726573;81;21052;-61
2021/12/21 09:27:46;;;;;;;2.10;1.75;;;;;;;8.48;47.37;99554.38;1726429;81;21082;-63
2021/12/21 09:30:15;;;;;;;1.95;1.57;;;;;;;8.49;47.38;99553.40;1727615;80;21041;-61
2021/12/21 09:32:42;;;;;;;1.67;1.47;;;;;;;8.50;47.32;99551.92;1729132;80;21810;-61
2021/12/21 09:35:09;;;;;;;2.25;1.40;;;;;;;8.52;47.31;99553.06;1730226;81;20994;-59
2021/12/21 09:37:37;;;;;;;1.90;1.65;;;;;;;8.53;47.30;99550.26;1731233;80;21026;-59
2021/12/21 09:40:07;;;;;;;1.98;1.70;;;;;;;8.55;47.26;99541.66;1733515;81;21026;-59
2021/12/21 09:42:35;;;;;;;2.77;1.40;;;;;;;8.58;47.24;99549.30;1730300;80;21042;-59
2021/12/21 09:45:03;;;;;;;2.05;1.42;;;;;;;8.63;47.19;99548.80;1729293;80;21127;-61
2021/12/21 09:47:29;;;;;;;2.10;1.72;;;;;;;8.65;47.17;99540.20;1726535;81;21506;-62
2021/12/21 09:49:56;;;;;;;1.87;1.50;;;;;;;8.69;47.12;99546.83;1747448;81;21053;-60
2021/12/21 09:52:32;;;;;;;2.25;1.62;;;;;;;8.73;47.09;99544.23;1727676;81;21037;-59
2021/12/21 09:54:54;;;;;;;1.67;1.35;;;;;;;8.76;47.05;99550.50;1730578;80;21067;-59
2021/12/21 09:57:21;;;;;;;2.80;1.95;;;;;;;8.80;46.98;99543.07;1728805;81;21145;-61
2021/12/21 09:59:49;;;;;;;1.55;1.40;;;;;;;8.82;46.90;99537.94;1727622;81;21029;-60
2021/12/21 10:02:18;;;;;;;1.62;1.40;;;;;;;8.87;46.85;99544.09;1728888;81;21022;-59
2021/12/21 10:04:55;;;;;;;1.55;1.40;;;;;;;8.91;46.82;99548.58;1726795;80;21041;-59
2021/12/21 10:07:22;;;;;;;2.05;1.42;;;;;;;8.96;46.78;99548.90;1731573;80;21384;-60
2021/12/21 10:09:50;;;;;;;2.45;1.52;;;;;;;9.02;46.69;99551.74;1729866;81;21136;-59
2021/12/21 10:12:39;;;;;;;2.10;1.75;;;;;;;9.10;46.69;99548.75;1726798;81;21029;-60
2021/12/21 10:15:16;;;;;;;2.87;1.60;;;;;;;9.17;46.65;99555.89;1727910;80;21459;-59
2021/12/21 10:17:59;;;;;;;2.20;1.65;;;;;;;9.29;46.66;99548.95;1736745;80;21522;-60
2021/12/21 10:20:43;;;;;;;1.72;1.50;;;;;;;9.40;46.64;99555.26;1732391;81;20998;-60
2021/12/21 10:23:27;;;;;;;2.40;1.82;;;;;;;9.51;46.62;99552.28;1726565;81;21126;-60
2021/12/21 10:25:58;;;;;;;2.12;1.60;;;;;;;9.62;46.56;99549.81;1731359;81;21529;-59
2021/12/21 10:28:41;;;;;;;2.02;1.72;;;;;;;9.74;46.48;99553.77;1728572;80;21089;-60
2021/12/21 10:31:32;;;;;;;1.75;1.50;;;;;;;9.83;46.42;99553.24;1741249;81;21037;-60
2021/12/21 10:34:00;;;;;;;2.12;1.47;;;;;;;9.94;46.39;99560.04;1734390;81;21089;-60
2021/12/21 10:36:29;;;;;;;1.82;1.40;;;;;;;10.03;46.35;99559.03;1726618;80;21077;-58
2021/12/21 10:39:00;;;;;;;2.50;1.32;;;;;;;10.12;46.33;99574.42;1726435;81;21022;-58
2021/12/21 10:41:41;;;;;;;1.77;1.60;;;;;;;10.18;46.23;99569.29;1729382;81;21080;-59
2021/12/21 10:44:15;;;;;;;2.55;2.00;;;;;;;10.27;46.13;99583.36;1726247;81;21196;-59
2021/12/21 10:46:45;;;;;;;2.33;1.60;;;;;;;10.36;46.08;99574.91;1727086;81;21506;-59
2021/12/21 10:49:15;;;;;;;1.98;1.62;;;;;;;10.46;46.02;99575.53;1726127;81;22432;-59
2021/12/21 10:52:04;;;;;;;2.33;1.75;;;;;;;10.58;45.96;99575.48;1727339;81;21384;-59
2021/12/21 10:54:37;;;;;;;2.30;1.60;;;;;;;10.70;45.88;99571.97;1756585;80;21538;-61
2021/12/21 10:57:07;;;;;;;1.92;1.62;;;;;;;10.83;45.74;99568.73;1745097;80;21498;-58
2021/12/21 10:59:35;;;;;;;2.45;1.90;;;;;;;10.91;45.70;99576.66;1750875;80;21092;-59
2021/12/21 11:02:18;;;;;;;2.62;1.77;;;;;;;11.02;45.63;99575.45;1741552;81;21912;-59
2021/12/21 11:04:51;;;;;;;2.10;1.82;;;;;;;11.08;45.57;99585.38;1729460;81;21061;-59
2021/12/21 11:07:28;;;;;;;1.60;1.40;;;;;;;11.16;45.45;99588.48;1731428;80;21069;-58
2021/12/21 11:10:15;;;;;;;2.15;1.70;;;;;;;11.21;45.39;99588.80;1736657;80;21555;-59
2021/12/21 11:12:56;;;;;;;2.50;1.80;;;;;;;11.26;45.25;99588.26;1725979;81;21101;-57
2021/12/21 11:15:29;;;;;;;2.40;1.80;;;;;;;11.29;45.25;99590.58;1729777;81;21120;-61
2021/12/21 11:18:02;;;;;;;2.17;1.50;;;;;;;11.30;45.15;99596.20;1748588;81;21050;-58
2021/12/21 11:20:29;;;;;;;2.02;1.57;;;;;;;11.31;45.11;99602.68;1730784;80;21046;-61
2021/12/21 11:22:55;;;;;;;2.05;1.60;;;;;;;11.32;45.04;99599.52;1727187;81;21644;-61
2021/12/21 11:25:21;;;;;;;2.12;1.60;;;;;;;11.35;45.04;99597.84;1734518;81;21037;-59
2021/12/21 11:27:49;;;;;;;1.90;1.72;;;;;;;11.37;44.98;99606.47;1749403;80;21124;-57
2021/12/21 11:30:19;;;;;;;1.95;1.70;;;;;;;11.40;44.92;99600.81;1747716;80;21002;-59
2021/12/21 11:32:49;;;;;;;2.58;1.50;;;;;;;11.44;44.84;99610.09;1739407;80;21073;-60
2021/12/21 11:37:49;;;;;;;2.35;1.55;;;;;;;11.50;44.72;99610.70;1744215;81;21014;-59
2021/12/21 11:40:23;;;;;;;1.45;1.35;;;;;;;11.52;44.63;99603.38;1727715;80;21144;-57
2021/12/21 11:42:58;;;;;;;;;;;;;;;11.54;44.56;99608.52;1729119;81;21054;-58
2021/12/21 11:45:51;;;;;;;2.17;1.40;;;;;;;11.55;44.47;99617.66;1747310;81;20220;-58
2021/12/21 11:48:32;;;;;;;2.05;1.67;;;;;;;11.49;44.51;99614.39;1726615;81;21447;-58
2021/12/21 11:51:08;;;;;;;2.40;1.65;;;;;;;11.47;44.46;99615.04;1735199;80;21105;-59
2021/12/21 11:53:36;;;;;;;2.08;1.37;;;;;;;11.46;44.43;99617.90;1745363;80;21198;-58
2021/12/21 11:56:03;;;;;;;2.90;1.70;;;;;;;11.43;44.40;99624.38;1730363;81;21055;-59
2021/12/21 11:58:39;;;;;;;1.62;1.50;;;;;;;11.40;44.41;99623.42;1730644;80;21073;-59
2021/12/21 12:01:20;;;;;;;1.75;1.37;;;;;;;11.37;44.38;99626.42;1740666;80;21510;-60
2021/12/21 12:04:03;;;;;;;1.77;1.27;;;;;;;11.32;44.29;99636.27;1749115;80;21077;-59
2021/12/21 12:06:49;;;;;;;2.60;1.62;;;;;;;11.28;44.20;99630.13;1740126;81;21211;-59
2021/12/21 12:09:26;;;;;;;2.52;1.75;;;;;;;11.19;44.13;99637.34;1726655;81;21009;-58
2021/12/21 12:11:52;;;;;;;2.67;2.05;;;;;;;11.14;44.08;99643.66;1747637;81;21585;-58
2021/12/21 12:14:21;;;;;;;1.87;1.67;;;;;;;11.07;44.06;99638.23;1738705;81;21089;-59
2021/12/21 12:17:05;;;;;;;2.27;1.50;;;;;;;11.01;44.03;99643.73;1730926;81;21034;-58
2021/12/21 12:19:37;;;;;;;3.52;1.98;;;;;;;10.96;44.06;99645.26;1745215;81;21141;-57
2021/12/21 12:22:06;;;;;;;2.30;2.10;;;;;;;10.89;44.09;99660.23;1729579;81;21113;-59
2021/12/21 12:24:37;;;;;;;2.67;1.92;;;;;;;10.84;44.10;99659.94;1746680;80;21006;-58
2021/12/21 12:27:25;;;;;;;1.92;1.50;;;;;;;10.78;44.09;99656.95;1726801;81;20992;-58
2021/12/21 12:29:58;;;;;;;2.37;1.70;;;;;;;10.73;44.11;99661.94;1748674;80;21085;-58
2021/12/21 12:32:40;;;;;;;2.27;1.52;;;;;;;10.69;44.11;99665.13;1743112;81;22110;-59
2021/12/21 12:35:16;;;;;;;2.83;1.60;;;;;;;10.63;44.11;99668.78;1735863;80;21108;-58
2021/12/21 12:37:58;;;;;;;3.05;2.25;;;;;;;10.58;44.14;99670.28;1748760;80;21025;-59
2021/12/21 12:40:35;;;;;;;2.33;1.77;;;;;;;10.53;44.14;99669.98;1732364;80;21082;-59
2021/12/21 12:43:11;;;;;;;2.12;1.72;;;;;;;10.49;44.17;99678.78;1736570;81;21010;-59
2021/12/21 12:45:50;;;;;;;2.25;1.70;;;;;;;10.43;44.20;99672.83;1737258;81;21228;-59
2021/12/21 12:48:25;;;;;;;2.17;1.70;;;;;;;10.39;44.22;99684.76;1733770;80;21073;-59
2021/12/21 12:50:53;;;;;;;2.72;1.67;;;;;;;10.35;44.23;99686.09;1728007;82;21039;-60